sensor_id;sensor_type;location;lat;lon;timestamp;temperature;humidity
10572;DHT22;5334;48.928;12.704;2022-08-03T00:01:36;22.50;99.90
10572;DHT22;5334;48.928;12.704;2022-08-03T00:04:02;22.50;99.90
10572;DHT22;5334;48.928;12.704;2022-08-03T00:06:28;22.50;99.90
10572;DHT22;5334;48.928;12.704;2022-08-03T00:08:53;22.40;99.90
10572;DHT22;5334;48.928;12.704;2022-08-03T00:11:19;22.30;99.90
10572;DHT22;5334;48.928;12.704;2022-08-03T00:13:45;22.30;99.90
10572;DHT22;5334;48.928;12.704;2022-08-03T00:16:11;22.30;99.90
10572;DHT22;5334;48.928;12.704;2022-08-03T00:18:38;22.30;99.90
10572;DHT22;5334;48.928;12.704;2022-08-03T00:21:04;22.20;99.90
10572;DHT22;5334;48.928;12.704;2022-08-03T00:23:30;22.20;99.90
10572;DHT22;5334;48.928;12.704;2022-08-03T00:30:48;22.10;99.90
10572;DHT22;5334;48.928;12.704;2022-08-03T00:33:14;22.00;99.90
10572;DHT22;5334;48.928;12.704;2022-08-03T00:35:39;22.00;99.90
10572;DHT22;5334;48.928;12.704;2022-08-03T00:38:05;22.00;99.90
10572;DHT22;5334;48.928;12.704;2022-08-03T00:40:31;22.00;99.90
10572;DHT22;5334;48.928;12.704;2022-08-03T00:43:00;21.90;99.90
10572;DHT22;5334;48.928;12.704;2022-08-03T00:45:31;21.90;99.90
10572;DHT22;5334;48.928;12.704;2022-08-03T00:47:57;21.90;99.90
10572;DHT22;5334;48.928;12.704;2022-08-03T00:50:25;21.90;99.90
10572;DHT22;5334;48.928;12.704;2022-08-03T00:52:53;21.90;99.90
10572;DHT22;5334;48.928;12.704;2022-08-03T00:55:19;21.90;99.90
10572;DHT22;5334;48.928;12.704;2022-08-03T00:57:46;21.90;99.90
10572;DHT22;5334;48.928;12.704;2022-08-03T01:00:15;21.90;99.90
10572;DHT22;5334;48.928;12.704;2022-08-03T01:02:41;21.90;99.90
10572;DHT22;5334;48.928;12.704;2022-08-03T01:05:07;21.80;99.90
10572;DHT22;5334;48.928;12.704;2022-08-03T01:07:54;21.80;99.90
10572;DHT22;5334;48.928;12.704;2022-08-03T01:29:58;21.60;99.90
10572;DHT22;5334;48.928;12.704;2022-08-03T01:35:40;21.60;99.90
10572;DHT22;5334;48.928;12.704;2022-08-03T01:38:35;21.60;99.90
10572;DHT22;5334;48.928;12.704;2022-08-03T01:41:16;21.50;99.90
10572;DHT22;5334;48.928;12.704;2022-08-03T01:43:45;21.60;99.90
10572;DHT22;5334;48.928;12.704;2022-08-03T01:46:15;21.60;99.90
10572;DHT22;5334;48.928;12.704;2022-08-03T01:48:42;21.60;99.90
10572;DHT22;5334;48.928;12.704;2022-08-03T01:51:09;21.50;99.90
10572;DHT22;5334;48.928;12.704;2022-08-03T01:53:37;21.50;99.90
10572;DHT22;5334;48.928;12.704;2022-08-03T01:56:07;21.40;99.90
10572;DHT22;5334;48.928;12.704;2022-08-03T01:58:35;21.30;99.90
10572;DHT22;5334;48.928;12.704;2022-08-03T02:03:29;21.20;99.90
10572;DHT22;5334;48.928;12.704;2022-08-03T02:05:57;21.20;99.90
10572;DHT22;5334;48.928;12.704;2022-08-03T02:08:24;21.20;99.90
10572;DHT22;5334;48.928;12.704;2022-08-03T02:10:51;21.20;99.90
10572;DHT22;5334;48.928;12.704;2022-08-03T02:13:20;21.10;99.90
10572;DHT22;5334;48.928;12.704;2022-08-03T02:15:47;21.10;99.90
10572;DHT22;5334;48.928;12.704;2022-08-03T02:18:14;21.10;99.90
10572;DHT22;5334;48.928;12.704;2022-08-03T02:20:42;21.00;99.90
10572;DHT22;5334;48.928;12.704;2022-08-03T02:23:08;21.00;99.90
10572;DHT22;5334;48.928;12.704;2022-08-03T02:28:08;20.90;99.90
10572;DHT22;5334;48.928;12.704;2022-08-03T02:30:36;20.90;99.90
10572;DHT22;5334;48.928;12.704;2022-08-03T02:33:04;20.80;99.90
10572;DHT22;5334;48.928;12.704;2022-08-03T02:35:32;20.80;99.90
10572;DHT22;5334;48.928;12.704;2022-08-03T02:38:03;20.80;99.90
10572;DHT22;5334;48.928;12.704;2022-08-03T02:40:30;20.80;99.90
10572;DHT22;5334;48.928;12.704;2022-08-03T02:43:01;20.70;99.90
10572;DHT22;5334;48.928;12.704;2022-08-03T02:45:27;20.60;99.90
10572;DHT22;5334;48.928;12.704;2022-08-03T02:47:57;20.60;99.90
10572;DHT22;5334;48.928;12.704;2022-08-03T02:50:25;20.50;99.90
10572;DHT22;5334;48.928;12.704;2022-08-03T02:52:52;20.50;99.90
10572;DHT22;5334;48.928;12.704;2022-08-03T02:55:21;20.50;99.90
10572;DHT22;5334;48.928;12.704;2022-08-03T02:57:48;20.50;99.90
10572;DHT22;5334;48.928;12.704;2022-08-03T03:00:14;20.50;99.90
10572;DHT22;5334;48.928;12.704;2022-08-03T03:02:40;20.50;99.90
10572;DHT22;5334;48.928;12.704;2022-08-03T03:05:07;20.50;99.90
10572;DHT22;5334;48.928;12.704;2022-08-03T03:07:35;20.50;99.90
10572;DHT22;5334;48.928;12.704;2022-08-03T03:12:28;20.20;99.90
10572;DHT22;5334;48.928;12.704;2022-08-03T03:14:55;20.10;99.90
10572;DHT22;5334;48.928;12.704;2022-08-03T03:17:21;19.90;99.90
10572;DHT22;5334;48.928;12.704;2022-08-03T03:19:50;19.90;99.90
10572;DHT22;5334;48.928;12.704;2022-08-03T03:22:16;19.80;99.90
10572;DHT22;5334;48.928;12.704;2022-08-03T03:24:43;19.70;99.90
10572;DHT22;5334;48.928;12.704;2022-08-03T03:27:10;19.70;99.90
10572;DHT22;5334;48.928;12.704;2022-08-03T03:29:38;19.60;99.90
10572;DHT22;5334;48.928;12.704;2022-08-03T03:32:04;19.60;99.90
10572;DHT22;5334;48.928;12.704;2022-08-03T03:34:30;19.60;99.90
10572;DHT22;5334;48.928;12.704;2022-08-03T03:36:57;19.50;99.90
10572;DHT22;5334;48.928;12.704;2022-08-03T03:39:22;19.50;99.90
10572;DHT22;5334;48.928;12.704;2022-08-03T03:41:48;19.50;99.90
10572;DHT22;5334;48.928;12.704;2022-08-03T03:44:14;19.50;99.90
10572;DHT22;5334;48.928;12.704;2022-08-03T03:46:40;19.50;99.90
10572;DHT22;5334;48.928;12.704;2022-08-03T03:49:06;19.50;99.90
10572;DHT22;5334;48.928;12.704;2022-08-03T03:51:32;19.40;99.90
10572;DHT22;5334;48.928;12.704;2022-08-03T03:54:02;19.40;99.90
10572;DHT22;5334;48.928;12.704;2022-08-03T03:56:31;19.50;99.90
10572;DHT22;5334;48.928;12.704;2022-08-03T03:58:57;19.40;99.90
10572;DHT22;5334;48.928;12.704;2022-08-03T04:01:23;19.40;99.90
10572;DHT22;5334;48.928;12.704;2022-08-03T04:03:49;19.40;99.90
10572;DHT22;5334;48.928;12.704;2022-08-03T04:06:15;19.40;99.90
10572;DHT22;5334;48.928;12.704;2022-08-03T04:09:00;19.40;99.90
10572;DHT22;5334;48.928;12.704;2022-08-03T04:11:53;19.30;99.90
10572;DHT22;5334;48.928;12.704;2022-08-03T04:14:31;19.30;99.90
10572;DHT22;5334;48.928;12.704;2022-08-03T04:17:01;19.30;99.90
10572;DHT22;5334;48.928;12.704;2022-08-03T04:19:33;19.40;99.90
10572;DHT22;5334;48.928;12.704;2022-08-03T04:22:03;19.50;99.90
10572;DHT22;5334;48.928;12.704;2022-08-03T04:24:33;19.50;99.90
10572;DHT22;5334;48.928;12.704;2022-08-03T04:27:02;19.60;99.90
10572;DHT22;5334;48.928;12.704;2022-08-03T04:29:30;19.60;99.90
10572;DHT22;5334;48.928;12.704;2022-08-03T04:31:57;19.70;99.90
10572;DHT22;5334;48.928;12.704;2022-08-03T04:34:24;19.70;99.90
10572;DHT22;5334;48.928;12.704;2022-08-03T04:36:52;19.70;99.90
10572;DHT22;5334;48.928;12.704;2022-08-03T04:39:23;19.80;99.90
10572;DHT22;5334;48.928;12.704;2022-08-03T04:41:53;19.90;99.90
10572;DHT22;5334;48.928;12.704;2022-08-03T04:44:22;19.80;99.90
10572;DHT22;5334;48.928;12.704;2022-08-03T04:46:49;19.90;99.90
10572;DHT22;5334;48.928;12.704;2022-08-03T04:49:16;19.90;99.90
10572;DHT22;5334;48.928;12.704;2022-08-03T04:51:42;20.00;99.90
10572;DHT22;5334;48.928;12.704;2022-08-03T04:54:12;20.10;99.90
10572;DHT22;5334;48.928;12.704;2022-08-03T04:56:42;20.20;99.90
10572;DHT22;5334;48.928;12.704;2022-08-03T04:59:08;20.40;99.90
10572;DHT22;5334;48.928;12.704;2022-08-03T05:01:35;20.60;99.90
10572;DHT22;5334;48.928;12.704;2022-08-03T05:04:01;20.70;99.90
10572;DHT22;5334;48.928;12.704;2022-08-03T05:06:26;21.00;99.90
10572;DHT22;5334;48.928;12.704;2022-08-03T05:08:53;21.10;99.90
10572;DHT22;5334;48.928;12.704;2022-08-03T05:11:19;21.30;99.90
10572;DHT22;5334;48.928;12.704;2022-08-03T05:13:45;21.40;99.90
10572;DHT22;5334;48.928;12.704;2022-08-03T05:16:12;21.60;99.90
10572;DHT22;5334;48.928;12.704;2022-08-03T05:18:38;21.70;99.90
10572;DHT22;5334;48.928;12.704;2022-08-03T05:21:04;21.90;99.90
10572;DHT22;5334;48.928;12.704;2022-08-03T05:23:30;22.10;99.90
10572;DHT22;5334;48.928;12.704;2022-08-03T05:25:56;22.20;99.90
10572;DHT22;5334;48.928;12.704;2022-08-03T05:28:22;22.30;99.90
10572;DHT22;5334;48.928;12.704;2022-08-03T05:30:48;22.30;99.90
10572;DHT22;5334;48.928;12.704;2022-08-03T05:33:14;22.20;99.90
10572;DHT22;5334;48.928;12.704;2022-08-03T05:35:39;22.30;99.90
10572;DHT22;5334;48.928;12.704;2022-08-03T05:38:06;22.50;99.90
10572;DHT22;5334;48.928;12.704;2022-08-03T05:40:31;22.60;99.90
10572;DHT22;5334;48.928;12.704;2022-08-03T05:42:57;22.70;99.90
10572;DHT22;5334;48.928;12.704;2022-08-03T05:45:24;22.90;99.90
10572;DHT22;5334;48.928;12.704;2022-08-03T05:47:50;23.00;99.90
10572;DHT22;5334;48.928;12.704;2022-08-03T05:50:17;23.20;99.90
10572;DHT22;5334;48.928;12.704;2022-08-03T05:52:43;23.30;99.90
10572;DHT22;5334;48.928;12.704;2022-08-03T05:55:10;23.50;99.90
10572;DHT22;5334;48.928;12.704;2022-08-03T05:57:36;23.70;99.90
10572;DHT22;5334;48.928;12.704;2022-08-03T06:00:09;23.90;99.90
10572;DHT22;5334;48.928;12.704;2022-08-03T06:02:36;24.20;99.90
10572;DHT22;5334;48.928;12.704;2022-08-03T06:05:01;24.30;99.90
10572;DHT22;5334;48.928;12.704;2022-08-03T06:07:27;24.50;99.90
10572;DHT22;5334;48.928;12.704;2022-08-03T06:09:53;24.50;99.90
10572;DHT22;5334;48.928;12.704;2022-08-03T06:12:19;24.50;99.90
10572;DHT22;5334;48.928;12.704;2022-08-03T06:14:44;24.60;99.90
10572;DHT22;5334;48.928;12.704;2022-08-03T06:17:10;24.70;99.90
10572;DHT22;5334;48.928;12.704;2022-08-03T06:19:36;24.80;99.90
10572;DHT22;5334;48.928;12.704;2022-08-03T06:22:01;24.90;99.90
10572;DHT22;5334;48.928;12.704;2022-08-03T06:24:27;25.10;99.90
10572;DHT22;5334;48.928;12.704;2022-08-03T06:26:53;25.30;99.90
10572;DHT22;5334;48.928;12.704;2022-08-03T06:29:18;25.60;99.90
10572;DHT22;5334;48.928;12.704;2022-08-03T06:31:44;25.70;99.90
10572;DHT22;5334;48.928;12.704;2022-08-03T06:34:10;25.90;99.90
10572;DHT22;5334;48.928;12.704;2022-08-03T06:36:35;26.00;99.90
10572;DHT22;5334;48.928;12.704;2022-08-03T06:39:02;26.10;99.90
10572;DHT22;5334;48.928;12.704;2022-08-03T06:41:27;26.30;99.90
10572;DHT22;5334;48.928;12.704;2022-08-03T06:43:53;26.20;99.90
10572;DHT22;5334;48.928;12.704;2022-08-03T06:46:20;26.30;99.90
10572;DHT22;5334;48.928;12.704;2022-08-03T06:48:46;26.40;99.90
10572;DHT22;5334;48.928;12.704;2022-08-03T06:51:12;26.40;99.90
10572;DHT22;5334;48.928;12.704;2022-08-03T06:53:38;26.40;99.90
10572;DHT22;5334;48.928;12.704;2022-08-03T06:56:04;26.30;99.90
10572;DHT22;5334;48.928;12.704;2022-08-03T06:58:30;26.30;99.90
10572;DHT22;5334;48.928;12.704;2022-08-03T07:00:56;26.20;99.90
10572;DHT22;5334;48.928;12.704;2022-08-03T07:03:22;26.20;99.90
10572;DHT22;5334;48.928;12.704;2022-08-03T07:05:47;26.30;99.90
10572;DHT22;5334;48.928;12.704;2022-08-03T07:08:14;26.50;99.90
10572;DHT22;5334;48.928;12.704;2022-08-03T07:10:40;26.30;99.90
10572;DHT22;5334;48.928;12.704;2022-08-03T07:13:05;26.60;99.90
10572;DHT22;5334;48.928;12.704;2022-08-03T07:15:31;26.70;99.90
10572;DHT22;5334;48.928;12.704;2022-08-03T07:17:57;26.80;99.90
10572;DHT22;5334;48.928;12.704;2022-08-03T07:20:23;26.90;99.90
10572;DHT22;5334;48.928;12.704;2022-08-03T07:22:49;26.80;99.90
10572;DHT22;5334;48.928;12.704;2022-08-03T07:25:15;27.00;99.90
10572;DHT22;5334;48.928;12.704;2022-08-03T07:27:47;27.20;99.90
10572;DHT22;5334;48.928;12.704;2022-08-03T07:30:14;27.30;99.90
10572;DHT22;5334;48.928;12.704;2022-08-03T07:32:40;27.60;99.90
10572;DHT22;5334;48.928;12.704;2022-08-03T07:35:07;27.70;99.90
10572;DHT22;5334;48.928;12.704;2022-08-03T07:37:33;28.00;99.70
10572;DHT22;5334;48.928;12.704;2022-08-03T07:40:00;28.00;99.20
10572;DHT22;5334;48.928;12.704;2022-08-03T07:42:27;27.80;99.00
10572;DHT22;5334;48.928;12.704;2022-08-03T07:44:53;27.90;99.40
10572;DHT22;5334;48.928;12.704;2022-08-03T07:47:22;27.90;99.40
10572;DHT22;5334;48.928;12.704;2022-08-03T07:49:49;28.10;99.00
10572;DHT22;5334;48.928;12.704;2022-08-03T07:52:15;28.10;98.90
10572;DHT22;5334;48.928;12.704;2022-08-03T07:54:59;28.20;98.50
10572;DHT22;5334;48.928;12.704;2022-08-03T07:57:25;28.30;98.70
10572;DHT22;5334;48.928;12.704;2022-08-03T07:59:50;28.40;98.50
10572;DHT22;5334;48.928;12.704;2022-08-03T08:02:16;28.50;98.40
10572;DHT22;5334;48.928;12.704;2022-08-03T08:04:42;28.70;98.00
10572;DHT22;5334;48.928;12.704;2022-08-03T08:07:07;28.80;97.60
10572;DHT22;5334;48.928;12.704;2022-08-03T08:09:34;28.80;97.70
10572;DHT22;5334;48.928;12.704;2022-08-03T08:12:00;29.20;97.70
10572;DHT22;5334;48.928;12.704;2022-08-03T08:14:25;29.50;97.20
10572;DHT22;5334;48.928;12.704;2022-08-03T08:16:51;29.50;97.00
10572;DHT22;5334;48.928;12.704;2022-08-03T08:19:17;29.60;96.50
10572;DHT22;5334;48.928;12.704;2022-08-03T08:21:43;29.70;96.50
10572;DHT22;5334;48.928;12.704;2022-08-03T08:24:08;29.70;96.40
10572;DHT22;5334;48.928;12.704;2022-08-03T08:26:34;29.70;95.70
10572;DHT22;5334;48.928;12.704;2022-08-03T08:29:02;29.70;96.20
10572;DHT22;5334;48.928;12.704;2022-08-03T08:31:28;29.50;95.60
10572;DHT22;5334;48.928;12.704;2022-08-03T08:33:54;29.60;95.80
10572;DHT22;5334;48.928;12.704;2022-08-03T08:36:19;30.00;95.90
10572;DHT22;5334;48.928;12.704;2022-08-03T08:38:45;30.10;95.00
10572;DHT22;5334;48.928;12.704;2022-08-03T08:41:13;29.90;94.60
10572;DHT22;5334;48.928;12.704;2022-08-03T08:43:39;30.10;94.60
10572;DHT22;5334;48.928;12.704;2022-08-03T08:46:06;30.50;94.10
10572;DHT22;5334;48.928;12.704;2022-08-03T08:48:35;30.50;93.70
10572;DHT22;5334;48.928;12.704;2022-08-03T08:51:00;30.40;93.40
10572;DHT22;5334;48.928;12.704;2022-08-03T08:55:59;30.70;93.00
10572;DHT22;5334;48.928;12.704;2022-08-03T08:58:28;30.80;93.20
10572;DHT22;5334;48.928;12.704;2022-08-03T09:00:54;30.50;92.70
10572;DHT22;5334;48.928;12.704;2022-08-03T09:03:20;30.70;93.10
10572;DHT22;5334;48.928;12.704;2022-08-03T09:05:46;31.00;92.50
10572;DHT22;5334;48.928;12.704;2022-08-03T09:08:12;31.20;92.00
10572;DHT22;5334;48.928;12.704;2022-08-03T09:10:38;31.30;92.40
10572;DHT22;5334;48.928;12.704;2022-08-03T09:13:04;31.20;91.10
10572;DHT22;5334;48.928;12.704;2022-08-03T09:15:32;31.10;91.10
10572;DHT22;5334;48.928;12.704;2022-08-03T09:20:31;31.20;90.90
10572;DHT22;5334;48.928;12.704;2022-08-03T09:23:04;31.40;91.00
10572;DHT22;5334;48.928;12.704;2022-08-03T09:25:39;31.50;90.40
10572;DHT22;5334;48.928;12.704;2022-08-03T09:30:41;31.70;88.40
10572;DHT22;5334;48.928;12.704;2022-08-03T09:33:12;31.90;87.20
10572;DHT22;5334;48.928;12.704;2022-08-03T09:38:14;32.10;86.90
10572;DHT22;5334;48.928;12.704;2022-08-03T09:40:40;31.90;81.80
10572;DHT22;5334;48.928;12.704;2022-08-03T09:43:07;31.80;82.40
10572;DHT22;5334;48.928;12.704;2022-08-03T09:45:37;31.70;83.20
10572;DHT22;5334;48.928;12.704;2022-08-03T09:48:25;31.90;83.50
10572;DHT22;5334;48.928;12.704;2022-08-03T09:50:57;32.10;81.30
10572;DHT22;5334;48.928;12.704;2022-08-03T09:53:24;32.20;81.20
10572;DHT22;5334;48.928;12.704;2022-08-03T09:55:51;32.30;81.70
10572;DHT22;5334;48.928;12.704;2022-08-03T09:58:17;32.20;83.10
10572;DHT22;5334;48.928;12.704;2022-08-03T10:01:01;31.80;82.90
10572;DHT22;5334;48.928;12.704;2022-08-03T10:03:30;31.80;83.00
10572;DHT22;5334;48.928;12.704;2022-08-03T10:05:56;31.90;81.60
10572;DHT22;5334;48.928;12.704;2022-08-03T10:08:22;31.90;79.20
10572;DHT22;5334;48.928;12.704;2022-08-03T10:10:50;32.30;79.80
10572;DHT22;5334;48.928;12.704;2022-08-03T10:13:19;32.50;77.70
10572;DHT22;5334;48.928;12.704;2022-08-03T10:15:45;32.60;78.40
10572;DHT22;5334;48.928;12.704;2022-08-03T10:18:11;32.70;78.00
10572;DHT22;5334;48.928;12.704;2022-08-03T10:20:44;32.50;77.90
10572;DHT22;5334;48.928;12.704;2022-08-03T10:23:11;32.40;77.50
10572;DHT22;5334;48.928;12.704;2022-08-03T10:25:39;32.40;76.30
10572;DHT22;5334;48.928;12.704;2022-08-03T10:28:07;32.10;76.90
10572;DHT22;5334;48.928;12.704;2022-08-03T10:30:34;32.30;77.10
10572;DHT22;5334;48.928;12.704;2022-08-03T10:33:12;32.70;74.60
10572;DHT22;5334;48.928;12.704;2022-08-03T10:35:39;33.20;75.10
10572;DHT22;5334;48.928;12.704;2022-08-03T10:38:11;33.20;71.70
10572;DHT22;5334;48.928;12.704;2022-08-03T10:40:41;33.20;72.90
10572;DHT22;5334;48.928;12.704;2022-08-03T10:43:11;33.40;70.50
10572;DHT22;5334;48.928;12.704;2022-08-03T10:45:40;32.90;70.60
10572;DHT22;5334;48.928;12.704;2022-08-03T10:48:07;33.00;72.40
10572;DHT22;5334;48.928;12.704;2022-08-03T10:50:34;33.50;71.90
10572;DHT22;5334;48.928;12.704;2022-08-03T10:53:04;33.90;70.30
10572;DHT22;5334;48.928;12.704;2022-08-03T10:55:39;33.90;66.50
10572;DHT22;5334;48.928;12.704;2022-08-03T11:01:10;33.70;66.20
10572;DHT22;5334;48.928;12.704;2022-08-03T11:06:19;33.50;63.50
10572;DHT22;5334;48.928;12.704;2022-08-03T11:08:46;33.30;62.40
10572;DHT22;5334;48.928;12.704;2022-08-03T11:13:59;33.60;62.30
10572;DHT22;5334;48.928;12.704;2022-08-03T11:16:26;33.70;62.20
10572;DHT22;5334;48.928;12.704;2022-08-03T11:19:00;33.50;62.40
10572;DHT22;5334;48.928;12.704;2022-08-03T11:27:20;34.00;60.70
10572;DHT22;5334;48.928;12.704;2022-08-03T11:40:48;34.10;60.50
10572;DHT22;5334;48.928;12.704;2022-08-03T11:46:06;34.50;56.80
10572;DHT22;5334;48.928;12.704;2022-08-03T11:53:27;34.20;55.00
10572;DHT22;5334;48.928;12.704;2022-08-03T11:55:57;34.50;56.00
10572;DHT22;5334;48.928;12.704;2022-08-03T11:58:23;34.70;55.40
10572;DHT22;5334;48.928;12.704;2022-08-03T12:00:49;34.80;54.00
10572;DHT22;5334;48.928;12.704;2022-08-03T12:03:19;34.80;53.30
10572;DHT22;5334;48.928;12.704;2022-08-03T12:05:49;34.60;52.30
10572;DHT22;5334;48.928;12.704;2022-08-03T12:08:38;34.50;52.50
10572;DHT22;5334;48.928;12.704;2022-08-03T12:11:05;34.60;53.80
10572;DHT22;5334;48.928;12.704;2022-08-03T12:13:41;34.90;53.40
10572;DHT22;5334;48.928;12.704;2022-08-03T12:16:07;35.00;52.50
10572;DHT22;5334;48.928;12.704;2022-08-03T12:18:33;34.90;52.30
10572;DHT22;5334;48.928;12.704;2022-08-03T12:21:07;34.50;52.40
10572;DHT22;5334;48.928;12.704;2022-08-03T12:23:34;34.50;52.00
10572;DHT22;5334;48.928;12.704;2022-08-03T12:26:07;34.80;52.00
10572;DHT22;5334;48.928;12.704;2022-08-03T12:28:34;35.00;51.60
10572;DHT22;5334;48.928;12.704;2022-08-03T12:31:02;35.10;51.60
10572;DHT22;5334;48.928;12.704;2022-08-03T12:33:28;35.60;52.20
10572;DHT22;5334;48.928;12.704;2022-08-03T12:36:09;35.60;52.70
10572;DHT22;5334;48.928;12.704;2022-08-03T12:38:38;35.40;49.80
10572;DHT22;5334;48.928;12.704;2022-08-03T12:41:06;35.60;51.20
10572;DHT22;5334;48.928;12.704;2022-08-03T12:43:33;35.60;51.20
10572;DHT22;5334;48.928;12.704;2022-08-03T12:46:14;35.40;51.10
10572;DHT22;5334;48.928;12.704;2022-08-03T12:48:58;35.10;50.20
10572;DHT22;5334;48.928;12.704;2022-08-03T12:51:26;34.80;50.10
10572;DHT22;5334;48.928;12.704;2022-08-03T12:53:54;34.90;50.60
10572;DHT22;5334;48.928;12.704;2022-08-03T12:56:20;35.10;48.90
10572;DHT22;5334;48.928;12.704;2022-08-03T12:58:45;35.00;49.00
10572;DHT22;5334;48.928;12.704;2022-08-03T13:01:20;35.30;47.80
10572;DHT22;5334;48.928;12.704;2022-08-03T13:03:51;35.60;47.50
10572;DHT22;5334;48.928;12.704;2022-08-03T13:06:20;35.60;46.70
10572;DHT22;5334;48.928;12.704;2022-08-03T13:08:47;35.90;46.70
10572;DHT22;5334;48.928;12.704;2022-08-03T13:11:39;36.00;44.80
10572;DHT22;5334;48.928;12.704;2022-08-03T13:14:05;36.40;45.50
10572;DHT22;5334;48.928;12.704;2022-08-03T13:16:31;36.40;45.60
10572;DHT22;5334;48.928;12.704;2022-08-03T13:18:56;35.80;46.10
10572;DHT22;5334;48.928;12.704;2022-08-03T13:21:22;35.40;46.10
10572;DHT22;5334;48.928;12.704;2022-08-03T13:23:47;34.90;46.20
10572;DHT22;5334;48.928;12.704;2022-08-03T13:26:14;34.40;46.90
10572;DHT22;5334;48.928;12.704;2022-08-03T13:28:40;34.20;47.60
10572;DHT22;5334;48.928;12.704;2022-08-03T13:31:06;34.20;47.60
10572;DHT22;5334;48.928;12.704;2022-08-03T13:33:31;34.40;48.50
10572;DHT22;5334;48.928;12.704;2022-08-03T13:35:58;34.80;47.50
10572;DHT22;5334;48.928;12.704;2022-08-03T13:38:23;35.20;47.60
10572;DHT22;5334;48.928;12.704;2022-08-03T13:40:53;35.50;47.70
10572;DHT22;5334;48.928;12.704;2022-08-03T13:43:19;35.80;46.10
10572;DHT22;5334;48.928;12.704;2022-08-03T13:45:46;35.70;44.90
10572;DHT22;5334;48.928;12.704;2022-08-03T13:48:12;35.40;44.90
10572;DHT22;5334;48.928;12.704;2022-08-03T13:50:37;35.50;45.20
10572;DHT22;5334;48.928;12.704;2022-08-03T13:53:03;35.50;43.90
10572;DHT22;5334;48.928;12.704;2022-08-03T13:55:29;35.50;44.20
10572;DHT22;5334;48.928;12.704;2022-08-03T13:57:54;35.50;44.80
10572;DHT22;5334;48.928;12.704;2022-08-03T14:00:20;35.70;43.90
10572;DHT22;5334;48.928;12.704;2022-08-03T14:02:48;35.80;44.50
10572;DHT22;5334;48.928;12.704;2022-08-03T14:05:14;35.80;43.30
10572;DHT22;5334;48.928;12.704;2022-08-03T14:07:40;35.90;44.10
10572;DHT22;5334;48.928;12.704;2022-08-03T14:10:05;36.10;44.70
10572;DHT22;5334;48.928;12.704;2022-08-03T14:12:31;35.90;43.20
10572;DHT22;5334;48.928;12.704;2022-08-03T14:14:57;35.60;41.40
10572;DHT22;5334;48.928;12.704;2022-08-03T14:17:22;35.40;41.40
10572;DHT22;5334;48.928;12.704;2022-08-03T14:19:48;35.20;43.20
10572;DHT22;5334;48.928;12.704;2022-08-03T14:22:14;35.20;43.00
10572;DHT22;5334;48.928;12.704;2022-08-03T14:24:39;35.40;42.60
10572;DHT22;5334;48.928;12.704;2022-08-03T14:27:05;35.50;42.60
10572;DHT22;5334;48.928;12.704;2022-08-03T14:29:30;35.70;42.50
10572;DHT22;5334;48.928;12.704;2022-08-03T14:31:56;35.80;40.50
10572;DHT22;5334;48.928;12.704;2022-08-03T14:34:22;35.70;39.80
10572;DHT22;5334;48.928;12.704;2022-08-03T14:36:47;35.60;39.70
10572;DHT22;5334;48.928;12.704;2022-08-03T14:39:13;35.70;40.10
10572;DHT22;5334;48.928;12.704;2022-08-03T14:41:39;35.60;40.20
10572;DHT22;5334;48.928;12.704;2022-08-03T14:44:04;35.50;39.00
10572;DHT22;5334;48.928;12.704;2022-08-03T14:46:31;35.20;41.30
10572;DHT22;5334;48.928;12.704;2022-08-03T14:48:57;34.80;40.80
10572;DHT22;5334;48.928;12.704;2022-08-03T14:51:23;34.50;41.00
10572;DHT22;5334;48.928;12.704;2022-08-03T14:53:49;35.00;41.90
10572;DHT22;5334;48.928;12.704;2022-08-03T14:56:14;35.20;41.10
10572;DHT22;5334;48.928;12.704;2022-08-03T14:58:40;35.30;41.00
10572;DHT22;5334;48.928;12.704;2022-08-03T15:01:06;35.20;41.30
10572;DHT22;5334;48.928;12.704;2022-08-03T15:03:32;35.30;41.40
10572;DHT22;5334;48.928;12.704;2022-08-03T15:05:58;35.50;41.60
10572;DHT22;5334;48.928;12.704;2022-08-03T15:08:24;35.70;41.90
10572;DHT22;5334;48.928;12.704;2022-08-03T15:10:51;35.20;40.70
10572;DHT22;5334;48.928;12.704;2022-08-03T15:13:17;34.90;41.30
10572;DHT22;5334;48.928;12.704;2022-08-03T15:15:44;34.90;41.90
10572;DHT22;5334;48.928;12.704;2022-08-03T15:18:10;34.90;42.30
10572;DHT22;5334;48.928;12.704;2022-08-03T15:20:36;35.00;42.50
10572;DHT22;5334;48.928;12.704;2022-08-03T15:23:02;34.90;41.90
10572;DHT22;5334;48.928;12.704;2022-08-03T15:25:28;34.90;42.60
10572;DHT22;5334;48.928;12.704;2022-08-03T15:27:53;34.70;42.20
10572;DHT22;5334;48.928;12.704;2022-08-03T15:30:19;34.60;44.10
10572;DHT22;5334;48.928;12.704;2022-08-03T15:32:45;34.40;45.00
10572;DHT22;5334;48.928;12.704;2022-08-03T15:35:11;34.30;44.60
10572;DHT22;5334;48.928;12.704;2022-08-03T15:37:36;34.20;43.70
10572;DHT22;5334;48.928;12.704;2022-08-03T15:40:02;34.10;43.90
10572;DHT22;5334;48.928;12.704;2022-08-03T15:42:29;34.10;44.00
10572;DHT22;5334;48.928;12.704;2022-08-03T15:44:55;34.10;44.60
10572;DHT22;5334;48.928;12.704;2022-08-03T15:47:20;34.00;44.30
10572;DHT22;5334;48.928;12.704;2022-08-03T15:49:46;34.00;44.00
10572;DHT22;5334;48.928;12.704;2022-08-03T15:52:12;34.00;44.20
10572;DHT22;5334;48.928;12.704;2022-08-03T15:54:37;34.00;44.20
10572;DHT22;5334;48.928;12.704;2022-08-03T15:57:03;33.70;44.70
10572;DHT22;5334;48.928;12.704;2022-08-03T15:59:29;33.60;45.10
10572;DHT22;5334;48.928;12.704;2022-08-03T16:01:54;33.40;45.40
10572;DHT22;5334;48.928;12.704;2022-08-03T16:04:21;33.50;45.80
10572;DHT22;5334;48.928;12.704;2022-08-03T16:06:47;33.20;45.70
10572;DHT22;5334;48.928;12.704;2022-08-03T16:09:13;33.00;46.40
10572;DHT22;5334;48.928;12.704;2022-08-03T16:11:39;32.90;47.30
10572;DHT22;5334;48.928;12.704;2022-08-03T16:14:05;32.80;47.40
10572;DHT22;5334;48.928;12.704;2022-08-03T16:16:30;32.80;47.90
10572;DHT22;5334;48.928;12.704;2022-08-03T16:18:56;32.80;47.70
10572;DHT22;5334;48.928;12.704;2022-08-03T16:21:22;32.80;47.50
10572;DHT22;5334;48.928;12.704;2022-08-03T16:23:48;32.70;47.80
10572;DHT22;5334;48.928;12.704;2022-08-03T16:26:13;32.50;48.30
10572;DHT22;5334;48.928;12.704;2022-08-03T16:28:39;32.40;48.70
10572;DHT22;5334;48.928;12.704;2022-08-03T16:31:05;32.30;49.10
10572;DHT22;5334;48.928;12.704;2022-08-03T16:33:31;32.30;49.20
10572;DHT22;5334;48.928;12.704;2022-08-03T16:35:57;32.30;48.40
10572;DHT22;5334;48.928;12.704;2022-08-03T16:38:23;32.20;48.00
10572;DHT22;5334;48.928;12.704;2022-08-03T16:40:48;32.10;48.70
10572;DHT22;5334;48.928;12.704;2022-08-03T16:43:18;32.00;48.70
10572;DHT22;5334;48.928;12.704;2022-08-03T16:45:45;31.90;49.40
10572;DHT22;5334;48.928;12.704;2022-08-03T16:48:10;31.90;50.00
10572;DHT22;5334;48.928;12.704;2022-08-03T16:50:36;31.80;50.30